sensor_id;sensor_type;location;lat;lon;timestamp;pressure;altitude;pressure_sealevel;temperature;humidity
55277;BME280;41136;51.478;-2.610;2023-05-23T00:01:18;101795.21;;;13.51;92.88
55277;BME280;41136;51.478;-2.610;2023-05-23T00:03:43;101793.33;;;13.18;94.50
55277;BME280;41136;51.478;-2.610;2023-05-23T00:06:08;101800.31;;;12.60;96.80
55277;BME280;41136;51.478;-2.610;2023-05-23T00:08:34;101796.57;;;12.43;96.54
55277;BME280;41136;51.478;-2.610;2023-05-23T00:10:59;101797.63;;;12.30;100.00
55277;BME280;41136;51.478;-2.610;2023-05-23T00:13:25;101794.63;;;11.53;100.00
55277;BME280;41136;51.478;-2.610;2023-05-23T00:15:50;101798.18;;;12.14;100.00
55277;BME280;41136;51.478;-2.610;2023-05-23T00:18:15;101795.71;;;12.97;99.00
55277;BME280;41136;51.478;-2.610;2023-05-23T00:20:41;101796.87;;;12.30;100.00
55277;BME280;41136;51.478;-2.610;2023-05-23T00:23:06;101793.28;;;12.03;99.81
55277;BME280;41136;51.478;-2.610;2023-05-23T00:25:31;101800.68;;;11.72;100.00
55277;BME280;41136;51.478;-2.610;2023-05-23T00:27:57;101804.85;;;12.08;100.00
55277;BME280;41136;51.478;-2.610;2023-05-23T00:30:22;101803.41;;;11.90;100.00
55277;BME280;41136;51.478;-2.610;2023-05-23T00:32:47;101805.53;;;11.18;100.00
55277;BME280;41136;51.478;-2.610;2023-05-23T00:35:13;101804.79;;;11.68;100.00
55277;BME280;41136;51.478;-2.610;2023-05-23T00:37:38;101804.43;;;12.30;100.00
55277;BME280;41136;51.478;-2.610;2023-05-23T00:40:05;101803.74;;;12.74;100.00
55277;BME280;41136;51.478;-2.610;2023-05-23T00:42:28;101801.23;;;12.38;100.00
55277;BME280;41136;51.478;-2.610;2023-05-23T00:44:54;101803.13;;;11.59;100.00
55277;BME280;41136;51.478;-2.610;2023-05-23T00:47:19;101806.63;;;12.14;100.00
55277;BME280;41136;51.478;-2.610;2023-05-23T00:49:45;101803.41;;;12.57;100.00
55277;BME280;41136;51.478;-2.610;2023-05-23T00:52:10;101804.74;;;13.00;100.00
55277;BME280;41136;51.478;-2.610;2023-05-23T00:54:35;101805.32;;;12.63;98.65
55277;BME280;41136;51.478;-2.610;2023-05-23T00:57:00;101806.73;;;12.33;99.54
55277;BME280;41136;51.478;-2.610;2023-05-23T00:59:26;101807.70;;;11.78;100.00
55277;BME280;41136;51.478;-2.610;2023-05-23T01:01:52;101810.22;;;11.91;100.00
55277;BME280;41136;51.478;-2.610;2023-05-23T01:04:16;101807.79;;;11.63;100.00
55277;BME280;41136;51.478;-2.610;2023-05-23T01:06:42;101809.68;;;11.74;100.00
55277;BME280;41136;51.478;-2.610;2023-05-23T01:09:07;101811.20;;;12.15;100.00
55277;BME280;41136;51.478;-2.610;2023-05-23T01:11:37;101810.40;;;11.46;100.00
55277;BME280;41136;51.478;-2.610;2023-05-23T01:14:01;101812.78;;;11.53;100.00
55277;BME280;41136;51.478;-2.610;2023-05-23T01:16:29;101808.08;;;11.99;100.00
55277;BME280;41136;51.478;-2.610;2023-05-23T01:18:52;101806.80;;;12.73;100.00
55277;BME280;41136;51.478;-2.610;2023-05-23T01:21:16;101801.94;;;12.35;100.00
55277;BME280;41136;51.478;-2.610;2023-05-23T01:23:54;101800.07;;;12.93;100.00
55277;BME280;41136;51.478;-2.610;2023-05-23T01:26:15;101808.74;;;10.81;100.00
55277;BME280;41136;51.478;-2.610;2023-05-23T01:28:32;101808.36;;;11.69;100.00
55277;BME280;41136;51.478;-2.610;2023-05-23T01:30:57;101803.95;;;10.38;100.00
55277;BME280;41136;51.478;-2.610;2023-05-23T01:33:21;101806.68;;;10.84;100.00
55277;BME280;41136;51.478;-2.610;2023-05-23T01:35:46;101808.76;;;10.69;100.00
55277;BME280;41136;51.478;-2.610;2023-05-23T01:40:30;101805.22;;;11.22;100.00
55277;BME280;41136;51.478;-2.610;2023-05-23T01:42:56;101793.83;;;12.24;100.00
55277;BME280;41136;51.478;-2.610;2023-05-23T01:45:21;101795.94;;;13.07;97.88
55277;BME280;41136;51.478;-2.610;2023-05-23T01:47:48;101798.44;;;10.90;100.00
55277;BME280;41136;51.478;-2.610;2023-05-23T01:50:11;101799.05;;;12.00;100.00
55277;BME280;41136;51.478;-2.610;2023-05-23T01:52:36;101803.30;;;11.93;100.00
55277;BME280;41136;51.478;-2.610;2023-05-23T01:55:04;101806.47;;;11.38;100.00
55277;BME280;41136;51.478;-2.610;2023-05-23T01:57:28;101801.58;;;11.75;100.00
55277;BME280;41136;51.478;-2.610;2023-05-23T01:59:52;101805.42;;;12.67;100.00
55277;BME280;41136;51.478;-2.610;2023-05-23T02:02:22;101816.06;;;11.31;100.00
55277;BME280;41136;51.478;-2.610;2023-05-23T02:04:43;101814.81;;;11.79;100.00
55277;BME280;41136;51.478;-2.610;2023-05-23T02:07:08;101818.91;;;11.71;100.00
55277;BME280;41136;51.478;-2.610;2023-05-23T02:09:33;101821.26;;;11.00;100.00
55277;BME280;41136;51.478;-2.610;2023-05-23T02:11:59;101820.76;;;11.03;100.00
55277;BME280;41136;51.478;-2.610;2023-05-23T02:14:24;101822.86;;;10.40;100.00
55277;BME280;41136;51.478;-2.610;2023-05-23T02:16:50;101831.48;;;11.47;100.00
55277;BME280;41136;51.478;-2.610;2023-05-23T02:19:15;101832.24;;;11.12;100.00
55277;BME280;41136;51.478;-2.610;2023-05-23T02:21:40;101835.12;;;11.95;100.00
55277;BME280;41136;51.478;-2.610;2023-05-23T02:24:06;101828.36;;;11.56;100.00
55277;BME280;41136;51.478;-2.610;2023-05-23T02:26:31;101826.55;;;12.26;100.00
55277;BME280;41136;51.478;-2.610;2023-05-23T02:28:56;101828.68;;;11.25;100.00
55277;BME280;41136;51.478;-2.610;2023-05-23T02:31:22;101828.24;;;11.34;100.00
55277;BME280;41136;51.478;-2.610;2023-05-23T02:33:47;101828.11;;;11.85;100.00
55277;BME280;41136;51.478;-2.610;2023-05-23T02:36:13;101833.46;;;10.68;100.00
55277;BME280;41136;51.478;-2.610;2023-05-23T02:38:38;101836.95;;;10.63;100.00
55277;BME280;41136;51.478;-2.610;2023-05-23T02:41:04;101840.25;;;11.17;100.00
55277;BME280;41136;51.478;-2.610;2023-05-23T02:43:29;101840.96;;;11.36;100.00
55277;BME280;41136;51.478;-2.610;2023-05-23T02:45:54;101838.91;;;11.85;100.00
55277;BME280;41136;51.478;-2.610;2023-05-23T02:48:19;101836.93;;;11.87;100.00
55277;BME280;41136;51.478;-2.610;2023-05-23T02:50:45;101840.61;;;12.05;100.00
55277;BME280;41136;51.478;-2.610;2023-05-23T02:53:11;101840.24;;;10.99;100.00
55277;BME280;41136;51.478;-2.610;2023-05-23T02:55:35;101840.61;;;11.67;100.00
55277;BME280;41136;51.478;-2.610;2023-05-23T02:58:01;101838.17;;;11.89;100.00
55277;BME280;41136;51.478;-2.610;2023-05-23T03:00:26;101841.76;;;12.34;100.00
55277;BME280;41136;51.478;-2.610;2023-05-23T03:02:52;101839.58;;;12.26;100.00
55277;BME280;41136;51.478;-2.610;2023-05-23T03:05:17;101839.42;;;12.43;100.00
55277;BME280;41136;51.478;-2.610;2023-05-23T03:07:43;101837.56;;;12.80;100.00
55277;BME280;41136;51.478;-2.610;2023-05-23T03:10:08;101840.43;;;12.54;100.00
55277;BME280;41136;51.478;-2.610;2023-05-23T03:12:33;101841.14;;;12.47;100.00
55277;BME280;41136;51.478;-2.610;2023-05-23T03:14:58;101840.33;;;12.86;100.00
55277;BME280;41136;51.478;-2.610;2023-05-23T03:17:24;101842.69;;;12.35;100.00
55277;BME280;41136;51.478;-2.610;2023-05-23T03:19:49;101840.82;;;11.93;100.00
55277;BME280;41136;51.478;-2.610;2023-05-23T03:22:15;101842.48;;;12.85;100.00
55277;BME280;41136;51.478;-2.610;2023-05-23T03:24:40;101841.15;;;13.03;100.00
55277;BME280;41136;51.478;-2.610;2023-05-23T03:27:05;101840.39;;;12.43;100.00
55277;BME280;41136;51.478;-2.610;2023-05-23T03:29:31;101840.90;;;12.40;100.00
55277;BME280;41136;51.478;-2.610;2023-05-23T03:31:56;101837.83;;;12.49;100.00
55277;BME280;41136;51.478;-2.610;2023-05-23T03:34:21;101834.66;;;12.68;100.00
55277;BME280;41136;51.478;-2.610;2023-05-23T03:36:47;101835.33;;;12.39;100.00
55277;BME280;41136;51.478;-2.610;2023-05-23T03:39:12;101840.24;;;12.43;100.00
55277;BME280;41136;51.478;-2.610;2023-05-23T03:41:37;101837.55;;;11.83;100.00
55277;BME280;41136;51.478;-2.610;2023-05-23T03:44:03;101840.46;;;12.10;100.00
55277;BME280;41136;51.478;-2.610;2023-05-23T03:46:28;101841.49;;;12.47;100.00
55277;BME280;41136;51.478;-2.610;2023-05-23T03:48:53;101842.71;;;12.97;100.00
55277;BME280;41136;51.478;-2.610;2023-05-23T03:51:19;101842.27;;;11.95;100.00
55277;BME280;41136;51.478;-2.610;2023-05-23T03:53:44;101843.37;;;12.99;100.00
55277;BME280;41136;51.478;-2.610;2023-05-23T03:56:09;101843.57;;;12.83;100.00
55277;BME280;41136;51.478;-2.610;2023-05-23T03:58:35;101843.57;;;11.91;100.00
55277;BME280;41136;51.478;-2.610;2023-05-23T04:01:00;101846.71;;;12.29;100.00
55277;BME280;41136;51.478;-2.610;2023-05-23T04:03:26;101849.48;;;12.20;100.00
55277;BME280;41136;51.478;-2.610;2023-05-23T04:05:51;101852.96;;;12.31;100.00
55277;BME280;41136;51.478;-2.610;2023-05-23T04:08:16;101852.81;;;12.25;100.00
55277;BME280;41136;51.478;-2.610;2023-05-23T04:10:42;101852.92;;;12.05;100.00
55277;BME280;41136;51.478;-2.610;2023-05-23T04:13:07;101856.14;;;12.34;100.00
55277;BME280;41136;51.478;-2.610;2023-05-23T04:15:33;101856.63;;;12.89;100.00
55277;BME280;41136;51.478;-2.610;2023-05-23T04:17:58;101861.90;;;12.37;100.00
55277;BME280;41136;51.478;-2.610;2023-05-23T04:20:23;101864.54;;;11.49;100.00
55277;BME280;41136;51.478;-2.610;2023-05-23T04:22:49;101864.36;;;11.78;100.00
55277;BME280;41136;51.478;-2.610;2023-05-23T04:25:14;101863.09;;;11.48;100.00
55277;BME280;41136;51.478;-2.610;2023-05-23T04:27:39;101861.94;;;10.95;100.00
55277;BME280;41136;51.478;-2.610;2023-05-23T04:30:06;101864.25;;;11.03;100.00
55277;BME280;41136;51.478;-2.610;2023-05-23T04:32:30;101869.96;;;11.53;100.00
55277;BME280;41136;51.478;-2.610;2023-05-23T04:34:55;101868.95;;;11.47;100.00
55277;BME280;41136;51.478;-2.610;2023-05-23T04:37:21;101868.94;;;11.05;100.00
55277;BME280;41136;51.478;-2.610;2023-05-23T04:39:46;101868.79;;;10.76;100.00
55277;BME280;41136;51.478;-2.610;2023-05-23T04:42:11;101868.92;;;11.04;100.00
55277;BME280;41136;51.478;-2.610;2023-05-23T04:44:37;101869.00;;;10.46;100.00
55277;BME280;41136;51.478;-2.610;2023-05-23T04:47:03;101868.90;;;10.64;100.00
55277;BME280;41136;51.478;-2.610;2023-05-23T04:49:28;101867.84;;;10.38;100.00
55277;BME280;41136;51.478;-2.610;2023-05-23T04:51:53;101868.27;;;10.39;100.00
55277;BME280;41136;51.478;-2.610;2023-05-23T04:54:19;101868.93;;;10.87;100.00
55277;BME280;41136;51.478;-2.610;2023-05-23T04:56:44;101874.86;;;10.04;100.00
55277;BME280;41136;51.478;-2.610;2023-05-23T04:59:09;101874.32;;;10.37;100.00
55277;BME280;41136;51.478;-2.610;2023-05-23T05:01:35;101873.64;;;10.46;100.00
55277;BME280;41136;51.478;-2.610;2023-05-23T05:04:01;101875.40;;;10.47;100.00
55277;BME280;41136;51.478;-2.610;2023-05-23T05:06:26;101880.58;;;10.55;100.00
55277;BME280;41136;51.478;-2.610;2023-05-23T05:08:51;101879.91;;;11.63;100.00
55277;BME280;41136;51.478;-2.610;2023-05-23T05:11:16;101878.54;;;11.29;100.00
55277;BME280;41136;51.478;-2.610;2023-05-23T05:13:42;101885.59;;;10.16;100.00
55277;BME280;41136;51.478;-2.610;2023-05-23T05:16:07;101883.65;;;10.46;100.00
55277;BME280;41136;51.478;-2.610;2023-05-23T05:18:33;101888.41;;;10.22;100.00
55277;BME280;41136;51.478;-2.610;2023-05-23T05:20:58;101889.34;;;11.22;100.00
55277;BME280;41136;51.478;-2.610;2023-05-23T05:23:25;101888.34;;;11.34;100.00
55277;BME280;41136;51.478;-2.610;2023-05-23T05:25:49;101892.44;;;11.27;100.00
55277;BME280;41136;51.478;-2.610;2023-05-23T05:28:14;101897.61;;;10.49;100.00
55277;BME280;41136;51.478;-2.610;2023-05-23T05:30:39;101901.92;;;10.03;100.00
55277;BME280;41136;51.478;-2.610;2023-05-23T05:33:05;101901.84;;;9.24;100.00
55277;BME280;41136;51.478;-2.610;2023-05-23T05:35:30;101901.32;;;9.66;100.00
55277;BME280;41136;51.478;-2.610;2023-05-23T05:37:55;101900.30;;;10.59;100.00
55277;BME280;41136;51.478;-2.610;2023-05-23T05:40:21;101899.21;;;9.85;100.00
55277;BME280;41136;51.478;-2.610;2023-05-23T05:42:46;101907.08;;;10.94;100.00
55277;BME280;41136;51.478;-2.610;2023-05-23T05:45:12;101909.89;;;9.65;100.00
55277;BME280;41136;51.478;-2.610;2023-05-23T05:47:37;101908.70;;;10.62;100.00
55277;BME280;41136;51.478;-2.610;2023-05-23T05:50:02;101905.49;;;10.59;100.00
55277;BME280;41136;51.478;-2.610;2023-05-23T05:52:28;101904.63;;;10.78;100.00
55277;BME280;41136;51.478;-2.610;2023-05-23T05:54:53;101904.80;;;11.13;100.00
55277;BME280;41136;51.478;-2.610;2023-05-23T05:57:18;101901.93;;;11.34;100.00
55277;BME280;41136;51.478;-2.610;2023-05-23T05:59:43;101897.88;;;9.95;100.00
55277;BME280;41136;51.478;-2.610;2023-05-23T06:02:08;101894.74;;;11.75;100.00
55277;BME280;41136;51.478;-2.610;2023-05-23T06:04:34;101890.91;;;10.96;100.00
55277;BME280;41136;51.478;-2.610;2023-05-23T06:06:59;101886.11;;;11.03;100.00
55277;BME280;41136;51.478;-2.610;2023-05-23T06:09:24;101881.63;;;12.50;100.00
55277;BME280;41136;51.478;-2.610;2023-05-23T06:11:50;101886.31;;;12.12;100.00
55277;BME280;41136;51.478;-2.610;2023-05-23T06:14:15;101883.53;;;13.49;100.00
55277;BME280;41136;51.478;-2.610;2023-05-23T06:16:41;101884.65;;;13.36;100.00
55277;BME280;41136;51.478;-2.610;2023-05-23T06:19:06;101885.99;;;13.60;100.00
55277;BME280;41136;51.478;-2.610;2023-05-23T06:21:32;101882.93;;;13.85;100.00
55277;BME280;41136;51.478;-2.610;2023-05-23T06:23:57;101882.79;;;14.63;100.00
55277;BME280;41136;51.478;-2.610;2023-05-23T06:26:23;101889.19;;;13.28;100.00
55277;BME280;41136;51.478;-2.610;2023-05-23T06:28:48;101888.77;;;13.35;100.00
55277;BME280;41136;51.478;-2.610;2023-05-23T06:31:13;101886.56;;;13.17;100.00
55277;BME280;41136;51.478;-2.610;2023-05-23T06:33:38;101885.14;;;14.17;100.00
55277;BME280;41136;51.478;-2.610;2023-05-23T06:36:04;101887.20;;;13.47;100.00
55277;BME280;41136;51.478;-2.610;2023-05-23T06:38:31;101886.84;;;13.94;100.00
55277;BME280;41136;51.478;-2.610;2023-05-23T06:40:54;101882.78;;;15.08;100.00
55277;BME280;41136;51.478;-2.610;2023-05-23T06:43:20;101883.25;;;14.80;100.00
55277;BME280;41136;51.478;-2.610;2023-05-23T06:45:45;101879.60;;;15.39;97.95
55277;BME280;41136;51.478;-2.610;2023-05-23T06:48:10;101885.23;;;15.56;97.37
55277;BME280;41136;51.478;-2.610;2023-05-23T06:50:36;101878.80;;;15.88;94.54
55277;BME280;41136;51.478;-2.610;2023-05-23T06:53:01;101881.15;;;16.05;93.59
55277;BME280;41136;51.478;-2.610;2023-05-23T06:55:26;101881.47;;;16.15;93.01
55277;BME280;41136;51.478;-2.610;2023-05-23T06:57:52;101882.65;;;16.40;91.34
55277;BME280;41136;51.478;-2.610;2023-05-23T07:00:18;101887.47;;;15.46;91.78
55277;BME280;41136;51.478;-2.610;2023-05-23T07:02:43;101889.68;;;15.60;92.10
55277;BME280;41136;51.478;-2.610;2023-05-23T07:05:08;101890.12;;;15.97;90.81
55277;BME280;41136;51.478;-2.610;2023-05-23T07:07:34;101894.74;;;15.57;91.30
55277;BME280;41136;51.478;-2.610;2023-05-23T07:09:59;101891.70;;;16.71;89.70
55277;BME280;41136;51.478;-2.610;2023-05-23T07:12:24;101891.79;;;15.46;91.11
55277;BME280;41136;51.478;-2.610;2023-05-23T07:14:49;101891.11;;;13.91;97.95
55277;BME280;41136;51.478;-2.610;2023-05-23T07:17:15;101894.74;;;13.53;98.58
55277;BME280;41136;51.478;-2.610;2023-05-23T07:19:40;101890.11;;;13.81;100.00
55277;BME280;41136;51.478;-2.610;2023-05-23T07:22:06;101891.87;;;15.06;97.50
55277;BME280;41136;51.478;-2.610;2023-05-23T07:24:31;101894.72;;;14.74;96.65
55277;BME280;41136;51.478;-2.610;2023-05-23T07:26:56;101899.03;;;13.09;100.00
55277;BME280;41136;51.478;-2.610;2023-05-23T07:29:21;101898.94;;;14.53;98.08
55277;BME280;41136;51.478;-2.610;2023-05-23T07:31:47;101901.96;;;13.76;98.16
55277;BME280;41136;51.478;-2.610;2023-05-23T07:34:13;101909.13;;;12.58;100.00
55277;BME280;41136;51.478;-2.610;2023-05-23T07:36:39;101911.98;;;14.32;99.57
55277;BME280;41136;51.478;-2.610;2023-05-23T07:39:04;101916.69;;;12.71;100.00
55277;BME280;41136;51.478;-2.610;2023-05-23T07:41:29;101921.42;;;13.58;100.00
55277;BME280;41136;51.478;-2.610;2023-05-23T07:43:55;101927.80;;;13.15;100.00
55277;BME280;41136;51.478;-2.610;2023-05-23T07:46:20;101924.54;;;12.76;100.00
55277;BME280;41136;51.478;-2.610;2023-05-23T07:48:46;101923.05;;;13.44;100.00
55277;BME280;41136;51.478;-2.610;2023-05-23T07:51:11;101920.73;;;13.39;100.00
55277;BME280;41136;51.478;-2.610;2023-05-23T07:53:36;101927.33;;;13.72;100.00
55277;BME280;41136;51.478;-2.610;2023-05-23T07:56:02;101922.84;;;14.70;100.00
55277;BME280;41136;51.478;-2.610;2023-05-23T07:58:28;101922.78;;;15.34;96.89
55277;BME280;41136;51.478;-2.610;2023-05-23T08:00:53;101923.67;;;15.92;94.35
55277;BME280;41136;51.478;-2.610;2023-05-23T08:03:19;101928.05;;;14.97;96.55
55277;BME280;41136;51.478;-2.610;2023-05-23T08:05:44;101927.39;;;13.60;100.00
55277;BME280;41136;51.478;-2.610;2023-05-23T08:08:09;101922.22;;;14.26;99.07
55277;BME280;41136;51.478;-2.610;2023-05-23T08:10:35;101919.68;;;13.60;100.00
55277;BME280;41136;51.478;-2.610;2023-05-23T08:13:00;101920.14;;;12.93;100.00
55277;BME280;41136;51.478;-2.610;2023-05-23T08:15:25;101921.53;;;12.10;100.00
55277;BME280;41136;51.478;-2.610;2023-05-23T08:17:51;101917.71;;;12.34;100.00
55277;BME280;41136;51.478;-2.610;2023-05-23T08:20:16;101917.97;;;12.62;100.00
55277;BME280;41136;51.478;-2.610;2023-05-23T08:22:41;101917.08;;;12.53;100.00
55277;BME280;41136;51.478;-2.610;2023-05-23T08:25:07;101914.86;;;11.67;100.00
55277;BME280;41136;51.478;-2.610;2023-05-23T08:27:32;101910.93;;;11.86;100.00
55277;BME280;41136;51.478;-2.610;2023-05-23T08:29:57;101905.93;;;13.49;100.00
55277;BME280;41136;51.478;-2.610;2023-05-23T08:32:22;101896.48;;;14.76;100.00
55277;BME280;41136;51.478;-2.610;2023-05-23T08:34:47;101892.55;;;15.09;97.42
55277;BME280;41136;51.478;-2.610;2023-05-23T08:37:13;101893.57;;;15.41;92.85
55277;BME280;41136;51.478;-2.610;2023-05-23T08:39:38;101888.78;;;16.05;91.42
55277;BME280;41136;51.478;-2.610;2023-05-23T08:42:04;101882.57;;;15.93;89.52
55277;BME280;41136;51.478;-2.610;2023-05-23T08:44:29;101875.55;;;16.48;86.69
55277;BME280;41136;51.478;-2.610;2023-05-23T08:46:54;101874.40;;;17.15;86.74
55277;BME280;41136;51.478;-2.610;2023-05-23T08:49:21;101871.92;;;17.10;85.37
55277;BME280;41136;51.478;-2.610;2023-05-23T08:51:46;101872.15;;;17.44;83.18
55277;BME280;41136;51.478;-2.610;2023-05-23T08:54:10;101866.49;;;17.32;83.63
55277;BME280;41136;51.478;-2.610;2023-05-23T08:56:35;101869.91;;;17.10;83.75
55277;BME280;41136;51.478;-2.610;2023-05-23T08:59:01;101872.33;;;16.04;82.94
55277;BME280;41136;51.478;-2.610;2023-05-23T09:01:26;101877.13;;;17.07;83.03
55277;BME280;41136;51.478;-2.610;2023-05-23T09:03:51;101876.38;;;17.55;79.65
55277;BME280;41136;51.478;-2.610;2023-05-23T09:06:18;101881.83;;;16.72;76.85
55277;BME280;41136;51.478;-2.610;2023-05-23T09:08:41;101882.30;;;17.06;77.83
55277;BME280;41136;51.478;-2.610;2023-05-23T09:11:07;101883.90;;;17.06;80.07
55277;BME280;41136;51.478;-2.610;2023-05-23T09:13:33;101888.42;;;17.13;75.34
55277;BME280;41136;51.478;-2.610;2023-05-23T09:16:02;101884.91;;;17.73;76.28
55277;BME280;41136;51.478;-2.610;2023-05-23T09:18:24;101885.20;;;17.46;72.78
55277;BME280;41136;51.478;-2.610;2023-05-23T09:20:49;101893.96;;;17.55;71.55
55277;BME280;41136;51.478;-2.610;2023-05-23T09:23:14;101895.08;;;18.53;72.25
55277;BME280;41136;51.478;-2.610;2023-05-23T09:25:45;101894.19;;;18.42;70.99
55277;BME280;41136;51.478;-2.610;2023-05-23T09:28:05;101892.07;;;18.55;69.62
55277;BME280;41136;51.478;-2.610;2023-05-23T09:30:33;101898.84;;;17.84;69.52
55277;BME280;41136;51.478;-2.610;2023-05-23T09:32:58;101897.55;;;15.76;76.28
55277;BME280;41136;51.478;-2.610;2023-05-23T09:35:22;101897.89;;;16.31;78.54
55277;BME280;41136;51.478;-2.610;2023-05-23T09:37:47;101897.92;;;17.20;73.91
55277;BME280;41136;51.478;-2.610;2023-05-23T09:40:13;101896.65;;;17.99;70.92
55277;BME280;41136;51.478;-2.610;2023-05-23T09:42:41;101898.80;;;18.01;69.45
55277;BME280;41136;51.478;-2.610;2023-05-23T09:45:03;101894.58;;;18.66;69.38
55277;BME280;41136;51.478;-2.610;2023-05-23T09:47:28;101893.10;;;16.61;69.99
55277;BME280;41136;51.478;-2.610;2023-05-23T09:49:53;101891.22;;;16.42;69.09
55277;BME280;41136;51.478;-2.610;2023-05-23T09:52:19;101884.72;;;18.12;69.13
55277;BME280;41136;51.478;-2.610;2023-05-23T09:54:44;101880.48;;;18.59;68.15
55277;BME280;41136;51.478;-2.610;2023-05-23T09:57:09;101881.54;;;19.59;63.59
55277;BME280;41136;51.478;-2.610;2023-05-23T09:59:38;101880.43;;;19.68;59.94
55277;BME280;41136;51.478;-2.610;2023-05-23T10:02:01;101884.13;;;18.65;59.93
55277;BME280;41136;51.478;-2.610;2023-05-23T10:04:25;101880.24;;;19.30;60.89
55277;BME280;41136;51.478;-2.610;2023-05-23T10:06:55;101881.84;;;19.14;63.00
55277;BME280;41136;51.478;-2.610;2023-05-23T10:09:16;101888.21;;;20.01;60.39
55277;BME280;41136;51.478;-2.610;2023-05-23T10:14:08;101905.96;;;16.85;64.71
55277;BME280;41136;51.478;-2.610;2023-05-23T10:16:39;101902.94;;;14.83;70.42
55277;BME280;41136;51.478;-2.610;2023-05-23T10:19:02;101896.63;;;15.96;71.82
55277;BME280;41136;51.478;-2.610;2023-05-23T10:21:25;101898.21;;;17.53;67.11
55277;BME280;41136;51.478;-2.610;2023-05-23T10:23:48;101893.52;;;19.02;63.71
55277;BME280;41136;51.478;-2.610;2023-05-23T10:26:13;101887.26;;;19.42;61.29
55277;BME280;41136;51.478;-2.610;2023-05-23T10:28:39;101895.69;;;17.58;62.98
55277;BME280;41136;51.478;-2.610;2023-05-23T10:31:03;101898.30;;;17.34;64.97
55277;BME280;41136;51.478;-2.610;2023-05-23T10:33:30;101900.52;;;16.67;63.05
55277;BME280;41136;51.478;-2.610;2023-05-23T10:35:59;101891.95;;;17.80;64.12
55277;BME280;41136;51.478;-2.610;2023-05-23T10:38:30;101886.98;;;18.59;63.02
55277;BME280;41136;51.478;-2.610;2023-05-23T10:40:52;101883.31;;;18.88;61.96
55277;BME280;41136;51.478;-2.610;2023-05-23T10:43:17;101893.43;;;17.95;63.53
55277;BME280;41136;51.478;-2.610;2023-05-23T10:45:39;101892.70;;;17.96;65.21
55277;BME280;41136;51.478;-2.610;2023-05-23T10:48:00;101893.40;;;16.42;67.49
55277;BME280;41136;51.478;-2.610;2023-05-23T10:50:30;101895.79;;;16.69;70.32
55277;BME280;41136;51.478;-2.610;2023-05-23T10:52:52;101895.52;;;17.80;66.82
55277;BME280;41136;51.478;-2.610;2023-05-23T10:55:16;101895.34;;;17.83;66.68
55277;BME280;41136;51.478;-2.610;2023-05-23T10:57:42;101895.47;;;18.79;62.61
55277;BME280;41136;51.478;-2.610;2023-05-23T11:00:12;101894.36;;;18.89;60.58
55277;BME280;41136;51.478;-2.610;2023-05-23T11:02:32;101893.78;;;18.93;60.74
55277;BME280;41136;51.478;-2.610;2023-05-23T11:07:28;101906.15;;;16.60;64.52
55277;BME280;41136;51.478;-2.610;2023-05-23T11:12:14;101904.07;;;17.55;66.37
55277;BME280;41136;51.478;-2.610;2023-05-23T11:19:30;101901.16;;;16.09;69.94
55277;BME280;41136;51.478;-2.610;2023-05-23T11:21:58;101899.84;;;16.30;70.91
55277;BME280;41136;51.478;-2.610;2023-05-23T11:24:21;101900.95;;;16.69;70.80
55277;BME280;41136;51.478;-2.610;2023-05-23T11:26:51;101906.63;;;15.15;74.46
55277;BME280;41136;51.478;-2.610;2023-05-23T11:29:15;101898.76;;;16.14;76.26
55277;BME280;41136;51.478;-2.610;2023-05-23T11:31:37;101900.10;;;16.21;74.85
55277;BME280;41136;51.478;-2.610;2023-05-23T11:34:03;101900.64;;;15.26;76.67
55277;BME280;41136;51.478;-2.610;2023-05-23T11:36:29;101900.87;;;15.79;77.91
55277;BME280;41136;51.478;-2.610;2023-05-23T11:38:54;101898.06;;;15.75;76.06
55277;BME280;41136;51.478;-2.610;2023-05-23T11:41:19;101902.12;;;15.16;78.09
55277;BME280;41136;51.478;-2.610;2023-05-23T11:43:49;101905.04;;;16.64;76.59
55277;BME280;41136;51.478;-2.610;2023-05-23T11:46:09;101905.46;;;15.75;77.79
55277;BME280;41136;51.478;-2.610;2023-05-23T11:48:35;101909.51;;;15.97;79.07
55277;BME280;41136;51.478;-2.610;2023-05-23T11:51:01;101913.57;;;15.10;84.31
55277;BME280;41136;51.478;-2.610;2023-05-23T11:53:26;101915.31;;;14.65;86.10
55277;BME280;41136;51.478;-2.610;2023-05-23T11:55:53;101911.21;;;15.62;84.96
55277;BME280;41136;51.478;-2.610;2023-05-23T11:58:17;101907.79;;;15.10;84.14
55277;BME280;41136;51.478;-2.610;2023-05-23T12:00:43;101910.72;;;14.97;87.62
55277;BME280;41136;51.478;-2.610;2023-05-23T12:03:08;101911.04;;;16.80;81.92
55277;BME280;41136;51.478;-2.610;2023-05-23T12:05:34;101910.45;;;17.20;77.33
55277;BME280;41136;51.478;-2.610;2023-05-23T12:07:59;101913.23;;;16.37;77.78
55277;BME280;41136;51.478;-2.610;2023-05-23T12:10:26;101911.79;;;15.82;77.34
55277;BME280;41136;51.478;-2.610;2023-05-23T12:12:50;101911.96;;;16.11;73.93
55277;BME280;41136;51.478;-2.610;2023-05-23T12:15:15;101911.63;;;17.15;73.98
55277;BME280;41136;51.478;-2.610;2023-05-23T12:17:43;101910.86;;;16.39;72.67
55277;BME280;41136;51.478;-2.610;2023-05-23T12:20:07;101907.49;;;15.43;77.94
55277;BME280;41136;51.478;-2.610;2023-05-23T12:22:31;101904.47;;;15.15;77.93
55277;BME280;41136;51.478;-2.610;2023-05-23T12:24:56;101903.73;;;14.87;81.39
55277;BME280;41136;51.478;-2.610;2023-05-23T12:27:27;101903.37;;;15.92;76.69
55277;BME280;41136;51.478;-2.610;2023-05-23T12:29:50;101903.46;;;16.42;76.55
55277;BME280;41136;51.478;-2.610;2023-05-23T12:32:12;101906.86;;;15.19;72.45
55277;BME280;41136;51.478;-2.610;2023-05-23T12:34:40;101900.69;;;15.36;73.15
55277;BME280;41136;51.478;-2.610;2023-05-23T12:37:03;101900.90;;;15.37;75.70
55277;BME280;41136;51.478;-2.610;2023-05-23T12:39:29;101900.93;;;14.74;78.41